Latest Weather Observations for Port Augusta

IDS60801

Issued at 8:02 pm CST Thursday 24 September 2020 (issued every 10 minutes, with the page automatically refreshed every 10 minutes)

About weather observations | Map of weather stations | Latest weather observations for SA | Other Formats
Station Details ID: 018201 Name: PORT AUGUSTA AERO Lat: -32.51 Lon: 137.72 Height: 13.97 m
Data from the previous 72 hours. | See also: Recent months at Port Augusta
Date/Time
CST
Temp
°C
App
Temp
°C
Dew
Point
°C
Rel
Hum
%
Delta-T
°C
Wind Press
QNH
hPa
Press
MSL
hPa
Rain since
9am
mm
Dir  Spd
km/h
Gust
km/h
Spd
kts
Gust
kts
24/08:00pm 12.5 8.7 9.1 80 1.7 WNW 19 26 10 14 1013.1 1013.0 1.2
24/07:30pm 13.1 9.6 10.3 83 1.5 W 19 26 10 14 1013.1 1013.0 1.2
24/07:00pm 12.9 11.4 10.6 86 1.2 NW 9 17 5 9 1013.1 1013.0 1.2
24/06:30pm 12.6 10.9 10.0 84 1.3 SW 9 11 5 6 1013.1 1013.0 1.2
24/06:00pm 12.6 9.1 10.1 85 1.3 W 19 28 10 15 1013.2 1013.1 1.2
24/05:30pm 13.1 8.4 10.6 85 1.3 WSW 26 37 14 20 1013.3 1013.2 1.0
24/05:00pm 14.4 10.6 11.0 80 1.8 WSW 22 32 12 17 1013.1 1013.0 0.6
24/04:30pm 13.9 9.3 11.2 84 1.4 SW 26 32 14 17 1013.1 1013.0 0.6
24/04:00pm 13.4 5.3 10.9 85 1.3 WSW 44 65 24 35 1013.3 1013.2 0.4
24/03:57pm 13.5 4.8 10.1 80 1.8 W 46 65 25 35 1013.3 1013.2 0.2
24/03:56pm 13.5 4.7 9.6 77 2.0 W 46 65 25 35 1013.3 1013.2 0.0
24/03:51pm 15.5 7.4 7.0 57 4.2 WNW 39 63 21 34 1012.8 1012.7 0.0
24/03:30pm 18.9 11.5 3.9 37 7.1 WNW 32 48 17 26 1012.4 1012.3 0.0
24/03:14pm 18.7 11.8 4.5 39 6.8 NW 30 48 16 26 1012.6 1012.5 0.0
24/03:00pm 18.7 11.3 4.1 38 6.9 NW 32 46 17 25 1012.8 1012.7 0.0
24/02:30pm 18.1 10.7 3.9 39 6.7 NW 32 39 17 21 1013.5 1013.4 0.0
24/02:00pm 18.2 11.0 2.9 36 7.1 NW 30 43 16 23 1014.1 1014.0 0.0
24/01:30pm 18.1 12.4 2.8 36 7.0 WNW 22 35 12 19 1014.8 1014.7 0.0
24/01:00pm 18.7 12.0 3.7 37 7.1 WNW 28 39 15 21 1015.3 1015.2 0.0
24/12:30pm 17.3 11.3 3.2 39 6.5 WNW 24 33 13 18 1016.0 1015.9 0.0
24/12:00pm 16.6 10.2 3.3 41 6.1 W 26 39 14 21 1016.9 1016.8 0.0
24/11:30am 16.4 10.7 3.1 41 6.1 WNW 22 35 12 19 1017.4 1017.3 0.0
24/11:00am 15.8 10.7 2.9 42 5.8 W 19 28 10 15 1017.9 1017.8 0.0
24/10:30am 15.6 11.8 3.7 45 5.5 WNW 13 22 7 12 1018.4 1018.3 0.0
24/10:00am 14.2 10.9 4.8 53 4.4 WSW 11 17 6 9 1019.0 1018.9 0.0
24/09:30am 14.2 9.1 4.2 51 4.6 W 20 32 11 17 1019.8 1019.7 0.0
24/09:00am 13.7 9.1 3.8 51 4.5 WNW 17 24 9 13 1020.2 1020.2 0.0
24/08:30am 12.8 9.5 4.3 56 3.9 NNW 11 15 6 8 1020.4 1020.4 0.0
24/08:00am 11.8 8.9 4.5 61 3.3 NW 9 13 5 7 1020.6 1020.6 0.0
24/07:30am 10.7 8.2 6.5 75 2.0 N 9 11 5 6 1020.7 1020.7 0.0
24/07:00am 9.3 7.4 6.9 85 1.1 WSW 6 7 3 4 1020.6 1020.6 0.0
24/06:30am 8.7 7.0 5.8 82 1.3 WSW 4 6 2 3 1020.4 1020.4 0.0
24/06:00am 8.3 6.1 6.3 87 0.9 WSW 7 9 4 5 1020.2 1020.2 0.0
24/05:30am 7.5 6.5 5.8 89 0.8 CALM 0 0 0 0 1019.9 1019.8 0.0
24/05:00am 6.7 5.6 5.0 89 0.7 CALM 0 6 0 3 1019.9 1019.8 0.0
24/04:30am 6.5 4.9 4.3 86 0.9 WSW 2 6 1 3 1019.9 1019.8 0.0
24/04:00am 6.8 4.3 3.9 82 1.2 WSW 6 7 3 4 1020.1 1020.1 0.0
24/03:30am 7.6 5.4 5.1 84 1.1 WSW 6 7 3 4 1020.2 1020.2 0.0
24/03:00am 7.8 5.4 5.1 83 1.2 WSW 7 9 4 5 1020.4 1020.4 0.0
24/02:30am 8.2 5.8 5.3 82 1.3 SW 7 9 4 5 1020.6 1020.6 0.0
24/02:00am 8.9 6.2 5.6 80 1.5 SW 9 11 5 6 1020.9 1020.9 0.0
24/01:30am 9.3 6.3 6.2 81 1.4 SW 11 13 6 7 1021.4 1021.4 0.0
24/01:00am 9.5 6.6 6.6 82 1.4 W 11 13 6 7 1021.7 1021.7 0.0
24/12:30am 10.4 8.6 7.1 80 1.6 S 6 7 3 4 1021.7 1021.7 0.0
24/12:00am 11.0 7.6 7.5 79 1.7 SSW 15 20 8 11 1021.8 1021.8 0.0
 
Date/Time
CST
Temp
°C
App
Temp
°C
Dew
Point
°C
Rel
Hum
%
Delta-T
°C
Wind Press
QNH
hPa
Press
MSL
hPa
Rain since
9am
mm
Dir  Spd
km/h
Gust
km/h
Spd
kts
Gust
kts
23/11:30pm 11.3 7.9 7.6 78 1.8 S 15 20 8 11 1022.0 1022.0 0.0
23/11:00pm 11.6 6.4 7.3 75 2.1 S 24 32 13 17 1021.9 1021.9 0.0
23/10:30pm 11.8 7.1 7.7 76 2.0 S 22 30 12 16 1021.9 1021.9 0.0
23/10:00pm 11.9 8.2 7.8 76 2.0 S 17 24 9 13 1022.3 1022.3 0.0
23/09:30pm 12.6 9.4 8.3 75 2.1 SSW 15 22 8 12 1022.5 1022.5 0.0
23/09:00pm 13.1 8.5 8.2 72 2.4 S 22 30 12 16 1022.2 1022.2 0.0
23/08:30pm 12.9 8.7 8.4 74 2.2 SSE 20 26 11 14 1021.9 1021.9 0.0
23/08:00pm 13.2 8.6 8.1 71 2.5 SSE 22 28 12 15 1021.7 1021.7 0.0
23/07:30pm 13.4 8.5 8.3 71 2.5 SSE 24 32 13 17 1021.6 1021.6 0.0
23/07:00pm 13.6 8.5 7.8 68 2.9 SSE 24 33 13 18 1021.3 1021.3 0.0
23/06:30pm 14.2 8.8 8.2 67 3.0 SSE 26 33 14 18 1021.0 1021.0 0.0
23/06:00pm 14.7 8.5 8.0 64 3.3 SSE 30 35 16 19 1020.8 1020.8 0.0
23/05:30pm 15.0 9.3 8.5 65 3.3 SE 28 37 15 20 1020.5 1020.5 0.0
23/05:00pm 15.5 9.1 8.7 64 3.5 SE 32 41 17 22 1020.3 1020.3 0.0
23/04:30pm 15.7 9.1 8.7 63 3.6 SSE 33 44 18 24 1020.0 1020.0 0.0
23/04:00pm 16.3 9.9 8.5 60 4.0 SE 32 41 17 22 1019.8 1019.7 0.0
23/03:30pm 17.1 11.5 8.8 58 4.3 SE 28 35 15 19 1019.8 1019.7 0.0
23/03:19pm 16.8 11.1 8.5 58 4.2 SE 28 48 15 26 1020.1 1020.1 0.0
23/03:16pm 16.8 11.1 8.5 58 4.2 SSE 28 48 15 26 1019.6 1019.5 0.0
23/03:00pm 19.2 13.1 4.6 38 7.0 SSW 26 37 14 20 1020.1 1020.1 0.0
23/02:30pm 19.5 13.4 2.8 33 7.7 WSW 24 35 13 19 1019.9 1019.8 0.0
23/02:00pm 19.9 13.3 2.3 31 8.1 WSW 26 35 14 19 1020.2 1020.2 0.0
23/01:30pm 18.8 12.3 2.6 34 7.4 SW 26 33 14 18 1020.6 1020.6 0.0
23/01:00pm 18.7 12.2 2.5 34 7.4 SW 26 39 14 21 1020.7 1020.7 0.0
23/12:30pm 18.7 12.7 3.3 36 7.2 WSW 24 37 13 20 1021.2 1021.2 0.0
23/12:00pm 18.1 11.9 2.4 35 7.1 SW 24 35 13 19 1021.5 1021.5 0.0
23/11:30am 17.5 10.8 3.8 40 6.4 SW 28 39 15 21 1021.8 1021.8 0.0
23/11:00am 17.5 11.2 3.8 40 6.4 WSW 26 41 14 22 1022.0 1022.0 0.0
23/10:30am 16.2 10.1 2.9 41 6.0 SW 24 32 13 17 1022.3 1022.3 0.0
23/10:00am 15.9 9.2 3.4 43 5.7 WSW 28 39 15 21 1022.5 1022.5 0.0
23/09:30am 15.0 9.3 4.7 50 4.8 WSW 24 39 13 21 1022.4 1022.4 0.0
23/09:00am 14.4 9.8 6.5 59 3.8 WSW 20 28 11 15 1022.5 1022.5 0.0
23/08:30am 13.7 9.9 7.5 66 3.0 WSW 17 22 9 12 1022.5 1022.5 0.0
23/08:00am 12.9 9.2 7.8 71 2.5 W 17 22 9 12 1022.2 1022.2 0.0
23/07:30am 11.9 9.1 8.4 79 1.7 SW 13 19 7 10 1022.2 1022.2 0.0
23/07:00am 10.7 8.9 7.9 83 1.4 WSW 7 11 4 6 1021.8 1021.8 0.0
23/06:30am 9.7 7.8 7.5 86 1.0 WNW 7 9 4 5 1021.7 1021.7 0.0
23/06:00am 10.1 9.5 7.3 83 1.3 CALM 0 0 0 0 1021.4 1021.4 0.0
23/05:30am 10.3 8.4 7.7 84 1.2 SW 7 9 4 5 1021.0 1021.0 0.0
23/05:00am 9.7 7.9 7.1 84 1.2 N 6 9 3 5 1020.5 1020.5 0.0
23/04:30am 10.6 8.9 7.5 81 1.5 NNW 6 7 3 4 1020.2 1020.2 0.0
23/04:00am 10.9 10.4 7.8 81 1.5 CALM 0 4 0 2 1020.0 1020.0 0.0
23/03:30am 10.7 8.9 7.8 82 1.4 NW 7 9 4 5 1020.0 1020.0 0.0
23/03:00am 10.1 8.3 7.2 82 1.4 NW 6 7 3 4 1020.0 1020.0 0.0
23/02:30am 10.2 9.1 6.9 80 1.6 WNW 2 7 1 4 1020.1 1020.1 0.0
23/02:00am 10.1 8.6 6.8 80 1.6 NW 4 6 2 3 1020.2 1020.2 0.0
23/01:30am 9.8 7.3 6.5 80 1.5 WNW 9 9 5 5 1020.2 1020.2 0.0
23/01:00am 10.9 9.0 6.6 75 2.0 WSW 6 11 3 6 1020.2 1020.2 0.0
23/12:30am 11.2 9.7 6.9 75 2.0 WNW 4 9 2 5 1020.3 1020.3 0.0
23/12:00am 11.8 10.7 6.9 72 2.3 SW 2 7 1 4 1020.2 1020.2 0.0
 
Date/Time
CST
Temp
°C
App
Temp
°C
Dew
Point
°C
Rel
Hum
%
Delta-T
°C
Wind Press
QNH
hPa
Press
MSL
hPa
Rain since
9am
mm
Dir  Spd
km/h
Gust
km/h
Spd
kts
Gust
kts
22/11:30pm 12.2 10.4 7.1 71 2.4 SSW 6 9 3 5 1020.3 1020.3 0.0
22/11:00pm 12.6 9.8 7.1 69 2.7 SSW 11 20 6 11 1020.2 1020.2 0.0
22/10:30pm 13.0 10.2 7.0 67 2.9 SW 11 15 6 8 1020.1 1020.1 0.0
22/10:00pm 13.8 9.9 6.9 63 3.3 SW 17 24 9 13 1019.8 1019.7 0.0
22/09:30pm 14.1 9.7 6.7 61 3.6 SW 19 24 10 13 1019.8 1019.7 0.0
22/09:00pm 14.3 9.3 6.4 59 3.8 SW 22 28 12 15 1019.5 1019.4 0.0
22/08:30pm 15.1 8.6 6.7 57 4.1 SW 30 39 16 21 1019.2 1019.1 0.0
22/08:00pm 15.5 9.6 6.0 53 4.6 SW 26 32 14 17 1018.8 1018.7 0.0
22/07:30pm 15.8 9.3 6.5 54 4.5 SW 30 39 16 21 1018.2 1018.1 0.0
22/07:00pm 16.4 11.8 6.5 52 4.8 SW 20 28 11 15 1017.6 1017.5 0.0
22/06:30pm 16.7 11.4 6.8 52 4.9 SW 24 32 13 17 1017.2 1017.1 0.0
22/06:00pm 17.3 10.5 7.6 53 4.9 SSW 33 41 18 22 1016.6 1016.5 0.0
22/05:30pm 18.5 12.7 6.4 45 6.0 SW 26 32 14 17 1016.1 1016.0 0.0
22/05:00pm 18.7 12.8 5.9 43 6.3 SW 26 35 14 19 1015.8 1015.7 0.0
22/04:30pm 19.7 13.9 4.6 37 7.3 WSW 24 35 13 19 1015.3 1015.2 0.0
22/04:00pm 19.5 14.1 4.4 37 7.3 WSW 22 35 12 19 1015.2 1015.1 0.0
22/03:30pm 19.9 14.6 5.2 38 7.2 WSW 22 28 12 15 1015.1 1015.0 0.0
22/03:00pm 19.5 14.6 5.2 39 7.0 WSW 20 30 11 16 1015.0 1014.9 0.0
22/02:30pm 19.2 13.2 5.3 40 6.8 SW 26 32 14 17 1015.3 1015.2 0.0
22/02:00pm 19.9 13.3 4.4 36 7.5 W 28 37 15 20 1015.4 1015.3 0.0
22/01:30pm 19.5 12.5 4.0 36 7.4 W 30 43 16 23 1015.7 1015.6 0.0
22/01:00pm 19.8 13.4 5.1 38 7.2 W 28 35 15 19 1015.9 1015.8 0.0
22/12:30pm 18.9 12.6 5.7 42 6.5 W 28 37 15 20 1016.0 1015.9 0.0
22/12:00pm 18.5 13.3 5.4 42 6.4 W 22 33 12 18 1016.4 1016.3 0.0
22/11:30am 19.0 13.6 6.5 44 6.2 W 24 33 13 18 1016.9 1016.8 0.0
22/11:00am 17.2 11.7 6.1 48 5.4 W 24 32 13 17 1017.2 1017.1 0.0
22/10:30am 16.5 10.0 6.3 51 5.0 WSW 30 39 16 21 1017.0 1016.9 0.0
22/10:00am 16.7 10.4 5.9 49 5.2 W 28 37 15 20 1016.9 1016.8 0.0
22/09:30am 15.9 10.3 5.5 50 5.0 W 24 39 13 21 1017.0 1016.9 0.0
22/09:00am 15.8 10.2 7.1 56 4.3 W 26 33 14 18 1016.8 1016.7 0.0
22/08:30am 15.2 10.1 7.5 60 3.8 NW 24 32 13 17 1016.6 1016.5 0.0
22/08:00am 14.4 10.2 8.4 67 3.0 NW 20 26 11 14 1016.2 1016.1 0.0
22/07:30am 13.1 9.7 9.2 77 2.0 NNW 17 20 9 11 1016.0 1015.9 0.0
22/07:00am 11.7 9.0 8.9 83 1.4 NW 13 19 7 10 1015.5 1015.4 0.0
22/06:30am 9.4 7.5 7.5 88 0.9 N 7 11 4 6 1015.3 1015.2 0.0
22/06:00am 10.4 7.4 7.8 84 1.3 NW 13 15 7 8 1015.0 1014.9 0.0
22/05:30am 11.0 7.7 7.9 81 1.5 NW 15 22 8 12 1014.7 1014.6 0.0
22/05:00am 10.9 7.5 7.8 81 1.5 NW 15 19 8 10 1014.3 1014.2 0.0
22/04:30am 11.4 7.4 8.1 80 1.6 NW 19 22 10 12 1014.2 1014.1 0.0
22/04:00am 11.9 7.8 7.8 76 2.0 WNW 19 22 10 12 1014.0 1013.9 0.0
22/03:30am 11.8 8.9 8.3 79 1.7 NW 13 17 7 9 1013.9 1013.8 0.0
22/03:00am 12.3 9.7 9.3 82 1.5 NW 13 17 7 9 1013.9 1013.8 0.0
22/02:30am 12.3 8.9 9.3 82 1.5 WNW 17 22 9 12 1013.7 1013.6 0.0
22/02:00am 12.9 10.0 8.0 72 2.4 WNW 13 17 7 9 1013.9 1013.8 0.0
22/01:30am 11.8 8.6 6.9 72 2.3 W 13 15 7 8 1013.7 1013.6 0.0
22/01:00am 13.1 10.0 7.1 67 2.9 W 13 20 7 11 1013.7 1013.6 0.0
22/12:30am 12.7 9.9 7.0 68 2.7 W 11 13 6 7 1014.0 1013.9 0.0
22/12:00am 13.8 9.5 6.9 63 3.3 W 19 24 10 13 1014.1 1014.0 0.0
 
Date/Time
CST
Temp
°C
App
Temp
°C
Dew
Point
°C
Rel
Hum
%
Delta-T
°C
Wind Press
QNH
hPa
Press
MSL
hPa
Rain since
9am
mm
Dir  Spd
km/h
Gust
km/h
Spd
kts
Gust
kts
21/11:30pm 14.5 9.2 6.6 59 3.8 W 24 32 13 17 1014.0 1013.9 0.0
21/11:00pm 15.0 9.3 6.6 57 4.1 W 26 35 14 19 1013.8 1013.7 0.0
21/10:30pm 14.6 11.5 7.2 61 3.6 W 13 20 7 11 1013.6 1013.5 0.0
21/10:00pm 15.3 11.4 7.1 58 4.0 WSW 17 20 9 11 1013.2 1013.1 0.0
21/09:30pm 15.9 10.6 6.9 55 4.4 WSW 24 32 13 17 1012.7 1012.6 0.0
21/09:00pm 16.6 10.8 6.1 50 5.1 W 26 39 14 21 1012.3 1012.2 0.0
21/08:37pm 17.1 9.9 6.0 48 5.4 W 33 52 18 28 1011.7 1011.6 0.0
21/08:30pm 17.1 9.2 6.0 48 5.4 W 37 48 20 26 1011.6 1011.5 0.0
21/08:29pm 17.1 9.2 6.0 48 5.4 W 37 56 20 30 1011.6 1011.5 0.0

Other formats

Comma delimited format used in spreadsheet applications
http://www.bom.gov.au/fwo/IDS60801/IDS60801.95666.axf

JavaScript Object Notation format (JSON) in row-major order
http://www.bom.gov.au/fwo/IDS60801/IDS60801.95666.json

Data quality

Most of these data are generated automatically and are frequently updated. Quality checks on data are not normally performed. It is possible for incorrect values to appear. Refer to information at About Latest Weather Observations and please check the disclaimer before using these data.